createdAt,value
2023-02-11T00:01:30.570Z,59.8
2023-02-11T00:07:08.589Z,59.8
2023-02-11T00:12:47.260Z,59.8
2023-02-11T00:18:25.733Z,59.7
2023-02-11T00:24:05.458Z,59.6
2023-02-11T00:29:42.241Z,59.6
2023-02-11T00:35:05.146Z,59.6
2023-02-11T00:40:43.278Z,59.5
2023-02-11T00:46:06.435Z,59.4
2023-02-11T00:51:44.144Z,59.4
2023-02-11T00:57:06.358Z,59.3
2023-02-11T01:02:44.182Z,59.3
2023-02-11T01:08:22.638Z,59.3
2023-02-11T01:13:59.424Z,59.2
2023-02-11T01:19:37.796Z,59.2
2023-02-11T01:25:15.313Z,59.1
2023-02-11T01:30:37.314Z,59
2023-02-11T01:36:15.352Z,59
2023-02-11T01:41:52.799Z,58.9
2023-02-11T01:47:29.775Z,58.9
2023-02-11T01:53:07.796Z,58.8
2023-02-11T01:58:45.629Z,58.8
2023-02-11T02:04:22.772Z,58.7
2023-02-11T02:09:59.928Z,58.6
2023-02-11T02:15:36.983Z,58.6
2023-02-11T02:26:05.301Z,58.5
2023-02-11T02:31:43.350Z,58.4
2023-02-11T02:37:35.420Z,58.4
2023-02-11T02:43:13.104Z,58.3
2023-02-11T02:48:51.185Z,58.3
2023-02-11T02:54:27.848Z,58.3
2023-02-11T03:00:09.419Z,58.2
2023-02-11T03:05:47.219Z,58.1
2023-02-11T03:11:24.822Z,58.1
2023-02-11T03:17:02.338Z,58
2023-02-11T03:22:40.088Z,58
2023-02-11T03:28:17.765Z,57.9
2023-02-11T03:33:40.346Z,57.9
2023-02-11T03:39:02.527Z,57.8
2023-02-11T03:44:25.275Z,57.8
2023-02-11T03:54:53.998Z,57.7
2023-02-11T03:59:59.470Z,57.6
2023-02-11T04:05:37.512Z,57.6
2023-02-11T04:10:43.581Z,57.5
2023-02-11T04:16:22.318Z,57.5
2023-02-11T04:22:00.360Z,57.4
2023-02-11T04:27:37.254Z,57.4
2023-02-11T04:33:14.367Z,57.3
2023-02-11T04:38:36.325Z,57.3
2023-02-11T04:44:13.650Z,57.3
2023-02-11T04:49:51.195Z,57.2
2023-02-11T04:55:29.547Z,57.1
2023-02-11T05:01:06.692Z,57.1
2023-02-11T05:06:44.161Z,57.1
2023-02-11T05:12:21.851Z,57
2023-02-11T05:18:00.231Z,56.9
2023-02-11T05:23:57.171Z,56.9
2023-02-11T05:29:35.192Z,56.8
2023-02-11T05:35:12.096Z,56.8
2023-02-11T05:40:49.793Z,56.8
2023-02-11T05:46:13.445Z,56.7
2023-02-11T05:51:51.120Z,56.6
2023-02-11T05:57:29.225Z,56.6
2023-02-11T06:03:06.494Z,56.6
2023-02-11T06:08:43.412Z,56.4
2023-02-11T06:14:19.789Z,56.4
2023-02-11T06:19:25.594Z,56.4
2023-02-11T06:25:33.999Z,56.3
2023-02-11T06:31:15.004Z,56.3
2023-02-11T06:37:12.894Z,56.3
2023-02-11T06:42:50.110Z,56.2
2023-02-11T06:48:26.817Z,56.1
2023-02-11T06:54:05.367Z,56.1
2023-02-11T06:59:42.208Z,56
2023-02-11T07:05:18.961Z,56
2023-02-11T07:10:58.171Z,55.9
2023-02-11T07:16:39.635Z,55.9
2023-02-11T07:22:15.211Z,55.8
2023-02-11T07:27:52.334Z,55.8
2023-02-11T07:33:31.740Z,55.8
2023-02-11T07:39:09.171Z,55.7
2023-02-11T07:44:46.080Z,55.6
2023-02-11T07:50:27.442Z,55.6
2023-02-11T07:56:03.698Z,55.5
2023-02-11T08:01:43.783Z,55.5
2023-02-11T08:07:21.896Z,55.4
2023-02-11T08:12:59.917Z,55.4
2023-02-11T08:18:36.922Z,55.3
2023-02-11T08:24:15.427Z,55.3
2023-02-11T08:29:55.360Z,55.2
2023-02-11T08:35:33.544Z,55.2
2023-02-11T08:41:30.180Z,55.1
2023-02-11T08:46:53.367Z,55.1
2023-02-11T08:52:15.120Z,54.9
2023-02-11T08:57:53.462Z,54.8
2023-02-11T09:03:33.153Z,54.8
2023-02-11T09:09:10.945Z,54.7
2023-02-11T09:14:17.322Z,54.6
2023-02-11T09:19:54.148Z,54.5
2023-02-11T09:25:31.560Z,54.1
2023-02-11T09:31:09.989Z,53.8
2023-02-11T09:36:48.264Z,53.6
2023-02-11T09:42:10.683Z,53.4
2023-02-11T09:47:51.794Z,53.3
2023-02-11T09:53:28.854Z,53.1
2023-02-11T09:59:23.733Z,52.9
2023-02-11T10:05:01.677Z,52.8
2023-02-11T10:10:24.469Z,52.6
2023-02-11T10:16:03.170Z,52.5
2023-02-11T10:21:41.609Z,52.3
2023-02-11T10:32:14.433Z,52.6
2023-02-11T10:37:36.483Z,52.9
2023-02-11T10:43:14.068Z,53.3
2023-02-11T10:48:51.942Z,53.8
2023-02-11T10:54:14.096Z,54.1
2023-02-11T10:59:54.143Z,54.6
2023-02-11T11:05:39.202Z,55
2023-02-11T11:11:19.086Z,55.4
2023-02-11T11:16:56.136Z,56
2023-02-11T11:22:51.667Z,56.4
2023-02-11T11:28:29.724Z,56.9
2023-02-11T11:34:08.242Z,57.3
2023-02-11T11:39:45.563Z,57.7
2023-02-11T11:45:07.201Z,58
2023-02-11T11:50:44.733Z,58.3
2023-02-11T12:01:29.630Z,58.8
2023-02-11T12:07:07.704Z,59.1
2023-02-11T12:12:31.525Z,59.4
2023-02-11T12:17:38.955Z,59.6
2023-02-11T12:22:45.342Z,59.8
2023-02-11T12:28:22.979Z,60
2023-02-11T12:34:04.279Z,60.2
2023-02-11T12:39:42.406Z,60.3
2023-02-11T12:45:19.756Z,60.4
2023-02-11T12:50:57.226Z,60.5
2023-02-11T12:56:18.966Z,60.6
2023-02-11T13:02:07.613Z,60.6
2023-02-11T13:07:48.436Z,60.7
2023-02-11T13:13:27.091Z,60.7
2023-02-11T13:19:06.188Z,60.6
2023-02-11T13:24:12.772Z,60.6
2023-02-11T13:29:34.075Z,60.6
2023-02-11T13:34:56.851Z,60.6
2023-02-11T13:40:20.328Z,60.6
2023-02-11T13:45:57.283Z,60.5
2023-02-11T13:51:18.937Z,60.5
2023-02-11T13:56:40.314Z,60.4
2023-02-11T14:02:17.573Z,60.4
2023-02-11T14:07:56.846Z,60.4
2023-02-11T14:13:34.272Z,60.3
2023-02-11T14:19:28.045Z,60.3
2023-02-11T14:25:05.338Z,60.3
2023-02-11T14:30:42.498Z,60.2
2023-02-11T14:36:20.723Z,60.2
2023-02-11T14:41:58.871Z,60.1
2023-02-11T14:47:37.318Z,60.1
2023-02-11T14:53:00.725Z,60
2023-02-11T14:58:38.861Z,59.9
2023-02-11T15:04:01.504Z,59.9
2023-02-11T15:09:38.889Z,59.9
2023-02-11T15:15:17.704Z,59.9
2023-02-11T15:20:40.803Z,59.8
2023-02-11T15:26:06.022Z,59.8
2023-02-11T15:31:29.045Z,59.8
2023-02-11T15:37:07.278Z,59.7
2023-02-11T15:42:52.677Z,59.6
2023-02-11T15:48:36.503Z,59.6
2023-02-11T15:54:15.270Z,59.6
2023-02-11T15:59:51.597Z,59.5
2023-02-11T16:05:32.423Z,59.4
2023-02-11T16:11:09.457Z,59.4
2023-02-11T16:16:47.083Z,59.3
2023-02-11T16:22:33.140Z,59.3
2023-02-11T16:28:11.250Z,59.3
2023-02-11T16:33:52.632Z,59.2
2023-02-11T16:39:32.835Z,59.1
2023-02-11T16:45:09.826Z,59.1
2023-02-11T16:50:32.375Z,59.1
2023-02-11T16:56:12.720Z,59
2023-02-11T17:01:51.084Z,59
2023-02-11T17:07:39.308Z,58.9
2023-02-11T17:13:02.207Z,58.9
2023-02-11T17:18:25.137Z,58.8
2023-02-11T17:24:04.085Z,58.8
2023-02-11T17:29:42.087Z,58.8
2023-02-11T17:35:05.127Z,58.7
2023-02-11T17:40:45.656Z,58.6
2023-02-11T17:57:15.283Z,58.5
2023-02-11T18:02:38.505Z,58.5
2023-02-11T18:08:03.698Z,58.4
2023-02-11T18:13:28.702Z,58.4
2023-02-11T18:19:06.998Z,58.3
2023-02-11T18:24:44.874Z,58.3
2023-02-11T18:30:25.041Z,58.3
2023-02-11T18:36:04.611Z,58.2
2023-02-11T18:41:10.726Z,58.1
2023-02-11T18:46:48.092Z,58.1
2023-02-11T18:52:26.711Z,58.1
2023-02-11T18:58:04.598Z,58
2023-02-11T19:03:43.315Z,57.9
2023-02-11T19:09:21.589Z,57.9
2023-02-11T19:14:43.165Z,57.9
2023-02-11T19:19:53.793Z,57.8
2023-02-11T19:30:55.923Z,57.7
2023-02-11T19:36:33.281Z,57.7
2023-02-11T19:42:12.078Z,57.6
2023-02-11T19:47:50.076Z,57.6
2023-02-11T19:53:27.216Z,57.5
2023-02-11T19:59:05.539Z,57.5
2023-02-11T20:04:45.262Z,57.4
2023-02-11T20:10:08.401Z,57.4
2023-02-11T20:15:33.987Z,57.3
2023-02-11T20:21:20.099Z,57.3
2023-02-11T20:26:57.918Z,57.3
2023-02-11T20:32:35.987Z,57.2
2023-02-11T20:38:16.678Z,57.2
2023-02-11T20:43:39.134Z,57.1
2023-02-11T20:49:17.218Z,57.1
2023-02-11T20:54:54.400Z,57.1
2023-02-11T21:00:30.617Z,57
2023-02-11T21:05:52.651Z,56.9
2023-02-11T21:11:14.361Z,56.9
2023-02-11T21:16:51.906Z,56.9
2023-02-11T21:22:29.688Z,56.8
2023-02-11T21:28:07.161Z,56.8
2023-02-11T21:33:52.964Z,56.7
2023-02-11T21:39:02.357Z,56.7
2023-02-11T21:44:38.417Z,56.6
2023-02-11T21:50:16.552Z,56.6
2023-02-11T21:55:41.402Z,56.6
2023-02-11T22:01:18.198Z,56.5
2023-02-11T22:06:55.698Z,56.4
2023-02-11T22:12:34.260Z,56.4
2023-02-11T22:18:13.135Z,56.4
2023-02-11T22:23:50.035Z,56.3
2023-02-11T22:29:27.355Z,56.3
2023-02-11T22:34:52.162Z,56.2
2023-02-11T22:40:30.471Z,56.2
2023-02-11T22:46:07.993Z,56.1
2023-02-11T22:51:46.959Z,56.1
2023-02-11T22:57:23.369Z,56
2023-02-11T23:03:02.130Z,56
2023-02-11T23:08:40.008Z,55.9
2023-02-11T23:14:17.362Z,55.9
2023-02-11T23:19:40.422Z,55.8
2023-02-11T23:25:17.874Z,55.8
2023-02-11T23:30:56.072Z,55.8
2023-02-11T23:36:34.757Z,55.8
2023-02-11T23:42:12.232Z,55.7
2023-02-11T23:47:51.162Z,55.6
2023-02-11T23:52:57.456Z,55.6
2023-02-11T23:58:34.817Z,55.5
